sensor_id;sensor_type;location;lat;lon;timestamp;pressure;altitude;pressure_sealevel;temperature;humidity
18819;BME280;9537;45.594;9.294;2022-08-24T00:00:47;99593.22;;;25.56;46.11
18819;BME280;9537;45.594;9.294;2022-08-24T00:01:49;99591.88;;;25.54;46.32
18819;BME280;9537;45.594;9.294;2022-08-24T00:02:50;99598.88;;;25.55;46.26
18819;BME280;9537;45.594;9.294;2022-08-24T00:03:53;99600.25;;;25.52;46.35
18819;BME280;9537;45.594;9.294;2022-08-24T00:04:55;99592.13;;;25.52;46.46
18819;BME280;9537;45.594;9.294;2022-08-24T00:05:57;99592.41;;;25.51;46.35
18819;BME280;9537;45.594;9.294;2022-08-24T00:06:59;99594.84;;;25.47;46.09
18819;BME280;9537;45.594;9.294;2022-08-24T00:08:02;99592.41;;;25.51;46.33
18819;BME280;9537;45.594;9.294;2022-08-24T00:09:03;99595.41;;;25.44;46.05
18819;BME280;9537;45.594;9.294;2022-08-24T00:10:08;99592.41;;;25.40;45.98
18819;BME280;9537;45.594;9.294;2022-08-24T00:11:09;99593.25;;;25.41;46.44
18819;BME280;9537;45.594;9.294;2022-08-24T00:12:11;99595.13;;;25.40;46.25
18819;BME280;9537;45.594;9.294;2022-08-24T00:13:15;99592.41;;;25.40;46.47
18819;BME280;9537;45.594;9.294;2022-08-24T00:14:17;99598.66;;;25.41;46.30
18819;BME280;9537;45.594;9.294;2022-08-24T00:15:18;99596.47;;;25.43;46.01
18819;BME280;9537;45.594;9.294;2022-08-24T00:16:21;99603.22;;;25.46;46.36
18819;BME280;9537;45.594;9.294;2022-08-24T00:17:22;99598.13;;;25.44;46.20
18819;BME280;9537;45.594;9.294;2022-08-24T00:18:25;99597.56;;;25.42;46.36
18819;BME280;9537;45.594;9.294;2022-08-24T00:19:27;99599.47;;;25.42;46.41
18819;BME280;9537;45.594;9.294;2022-08-24T00:20:30;99602.41;;;25.40;46.30
18819;BME280;9537;45.594;9.294;2022-08-24T00:21:32;99604.59;;;25.43;46.26
18819;BME280;9537;45.594;9.294;2022-08-24T00:22:34;99598.91;;;25.45;45.80
18819;BME280;9537;45.594;9.294;2022-08-24T00:23:35;99602.69;;;25.44;45.95
18819;BME280;9537;45.594;9.294;2022-08-24T00:24:37;99608.38;;;25.42;45.83
18819;BME280;9537;45.594;9.294;2022-08-24T00:25:38;99597.56;;;25.42;46.07
18819;BME280;9537;45.594;9.294;2022-08-24T00:26:40;99605.13;;;25.45;45.72
18819;BME280;9537;45.594;9.294;2022-08-24T00:27:42;99598.91;;;25.45;45.61
18819;BME280;9537;45.594;9.294;2022-08-24T00:28:44;99605.13;;;25.45;45.58
18819;BME280;9537;45.594;9.294;2022-08-24T00:29:45;99603.22;;;25.40;45.71
18819;BME280;9537;45.594;9.294;2022-08-24T00:30:47;99606.75;;;25.36;45.81
18819;BME280;9537;45.594;9.294;2022-08-24T00:31:49;99609.19;;;25.37;45.70
18819;BME280;9537;45.594;9.294;2022-08-24T00:32:51;99601.06;;;25.37;46.13
18819;BME280;9537;45.594;9.294;2022-08-24T00:33:53;99601.06;;;25.32;45.91
18819;BME280;9537;45.594;9.294;2022-08-24T00:34:55;99604.06;;;25.31;46.41
18819;BME280;9537;45.594;9.294;2022-08-24T00:35:58;99602.41;;;25.35;46.23
18819;BME280;9537;45.594;9.294;2022-08-24T00:37:01;99602.44;;;25.30;46.03
18819;BME280;9537;45.594;9.294;2022-08-24T00:38:02;99607.84;;;25.30;45.81
18819;BME280;9537;45.594;9.294;2022-08-24T00:39:05;99610.81;;;25.33;46.17
18819;BME280;9537;45.594;9.294;2022-08-24T00:40:12;99603.50;;;25.34;45.82
18819;BME280;9537;45.594;9.294;2022-08-24T00:41:14;99605.13;;;25.35;46.33
18819;BME280;9537;45.594;9.294;2022-08-24T00:42:16;99602.72;;;25.33;45.83
18819;BME280;9537;45.594;9.294;2022-08-24T00:43:20;99600.81;;;25.39;45.69
18819;BME280;9537;45.594;9.294;2022-08-24T00:44:22;99603.78;;;25.37;46.07
18819;BME280;9537;45.594;9.294;2022-08-24T00:45:24;99602.97;;;25.37;45.89
18819;BME280;9537;45.594;9.294;2022-08-24T00:46:29;99601.34;;;25.36;46.16
18819;BME280;9537;45.594;9.294;2022-08-24T00:47:39;99595.66;;;25.32;46.41
18819;BME280;9537;45.594;9.294;2022-08-24T00:48:45;99604.06;;;25.31;45.93
18819;BME280;9537;45.594;9.294;2022-08-24T00:49:54;99603.78;;;25.32;46.26
18819;BME280;9537;45.594;9.294;2022-08-24T00:51:01;99598.09;;;25.34;46.09
18819;BME280;9537;45.594;9.294;2022-08-24T00:52:06;99597.56;;;25.32;45.99
18819;BME280;9537;45.594;9.294;2022-08-24T00:53:14;99598.91;;;25.34;45.96
18819;BME280;9537;45.594;9.294;2022-08-24T00:54:17;99600.81;;;25.34;45.71
18819;BME280;9537;45.594;9.294;2022-08-24T00:55:22;99590.00;;;25.29;46.07
18819;BME280;9537;45.594;9.294;2022-08-24T00:56:30;99590.53;;;25.31;46.28
18819;BME280;9537;45.594;9.294;2022-08-24T00:57:38;99594.34;;;25.30;46.25
18819;BME280;9537;45.594;9.294;2022-08-24T00:58:44;99580.28;;;25.28;46.34
18819;BME280;9537;45.594;9.294;2022-08-24T00:59:50;99593.25;;;25.26;46.50
18819;BME280;9537;45.594;9.294;2022-08-24T01:00:54;99586.22;;;25.25;46.25
18819;BME280;9537;45.594;9.294;2022-08-24T01:01:57;99595.94;;;25.26;46.52
18819;BME280;9537;45.594;9.294;2022-08-24T01:03:02;99590.00;;;25.24;46.68
18819;BME280;9537;45.594;9.294;2022-08-24T01:04:07;99582.19;;;25.27;46.28
18819;BME280;9537;45.594;9.294;2022-08-24T01:05:11;99588.38;;;25.23;46.41
18819;BME280;9537;45.594;9.294;2022-08-24T01:06:14;99582.44;;;25.21;46.53
18819;BME280;9537;45.594;9.294;2022-08-24T01:07:16;99583.25;;;25.21;46.13
18819;BME280;9537;45.594;9.294;2022-08-24T01:08:18;99580.81;;;25.20;46.39
18819;BME280;9537;45.594;9.294;2022-08-24T01:09:20;99586.22;;;25.20;46.34
18819;BME280;9537;45.594;9.294;2022-08-24T01:10:25;99583.25;;;25.21;46.79
18819;BME280;9537;45.594;9.294;2022-08-24T01:11:29;99581.38;;;25.22;46.66
18819;BME280;9537;45.594;9.294;2022-08-24T01:12:33;99581.91;;;25.19;46.80
18819;BME280;9537;45.594;9.294;2022-08-24T01:13:38;99579.47;;;25.17;47.03
18819;BME280;9537;45.594;9.294;2022-08-24T01:14:39;99581.63;;;25.20;46.86
18819;BME280;9537;45.594;9.294;2022-08-24T01:15:45;99584.88;;;25.17;47.17
18819;BME280;9537;45.594;9.294;2022-08-24T01:16:47;99580.81;;;25.14;46.93
18819;BME280;9537;45.594;9.294;2022-08-24T01:18:10;99586.47;;;25.13;47.40
18819;BME280;9537;45.594;9.294;2022-08-24T01:19:35;99591.63;;;25.14;46.89
18819;BME280;9537;45.594;9.294;2022-08-24T01:20:38;99588.38;;;25.12;47.19
18819;BME280;9537;45.594;9.294;2022-08-24T01:21:45;99591.63;;;25.14;47.31
18819;BME280;9537;45.594;9.294;2022-08-24T01:22:58;99589.72;;;25.15;47.29
18819;BME280;9537;45.594;9.294;2022-08-24T01:24:09;99592.13;;;25.11;47.23
18819;BME280;9537;45.594;9.294;2022-08-24T01:25:12;99589.97;;;25.08;47.42
18819;BME280;9537;45.594;9.294;2022-08-24T01:26:16;99589.97;;;25.08;47.44
18819;BME280;9537;45.594;9.294;2022-08-24T01:27:19;99589.97;;;25.08;47.63
18819;BME280;9537;45.594;9.294;2022-08-24T01:28:20;99591.31;;;25.06;47.77
18819;BME280;9537;45.594;9.294;2022-08-24T01:29:26;99585.91;;;25.06;47.65
18819;BME280;9537;45.594;9.294;2022-08-24T01:30:28;99590.53;;;25.05;47.47
18819;BME280;9537;45.594;9.294;2022-08-24T01:31:30;99585.66;;;25.07;47.97
18819;BME280;9537;45.594;9.294;2022-08-24T01:32:31;99586.72;;;25.06;47.55
18819;BME280;9537;45.594;9.294;2022-08-24T01:33:33;99582.94;;;25.02;47.98
18819;BME280;9537;45.594;9.294;2022-08-24T01:34:35;99577.53;;;25.02;47.82
18819;BME280;9537;45.594;9.294;2022-08-24T01:35:38;99576.47;;;24.98;47.46
18819;BME280;9537;45.594;9.294;2022-08-24T01:36:43;99581.88;;;24.98;47.44
18819;BME280;9537;45.594;9.294;2022-08-24T01:37:46;99577.00;;;25.00;47.47
18819;BME280;9537;45.594;9.294;2022-08-24T01:38:48;99579.69;;;25.00;47.58
18819;BME280;9537;45.594;9.294;2022-08-24T01:39:55;99577.81;;;25.01;47.62
18819;BME280;9537;45.594;9.294;2022-08-24T01:41:00;99576.47;;;24.98;47.82
18819;BME280;9537;45.594;9.294;2022-08-24T01:42:06;99577.28;;;24.99;48.01
18819;BME280;9537;45.594;9.294;2022-08-24T01:43:07;99577.53;;;24.97;47.82
18819;BME280;9537;45.594;9.294;2022-08-24T01:44:10;99578.34;;;24.98;48.10
18819;BME280;9537;45.594;9.294;2022-08-24T01:45:11;99579.16;;;24.93;48.20
18819;BME280;9537;45.594;9.294;2022-08-24T01:46:13;99580.22;;;24.92;48.34
18819;BME280;9537;45.594;9.294;2022-08-24T01:47:15;99583.75;;;24.87;48.37
18819;BME280;9537;45.594;9.294;2022-08-24T01:48:17;99576.19;;;24.84;48.49
18819;BME280;9537;45.594;9.294;2022-08-24T01:49:20;99579.69;;;24.85;48.83
18819;BME280;9537;45.594;9.294;2022-08-24T01:50:23;99574.84;;;24.82;48.50
18819;BME280;9537;45.594;9.294;2022-08-24T01:51:24;99586.19;;;24.79;48.79
18819;BME280;9537;45.594;9.294;2022-08-24T01:52:26;99580.78;;;24.79;48.61
18819;BME280;9537;45.594;9.294;2022-08-24T01:53:27;99580.75;;;24.73;49.10
18819;BME280;9537;45.594;9.294;2022-08-24T01:54:29;99581.84;;;24.72;49.09
18819;BME280;9537;45.594;9.294;2022-08-24T01:55:33;99571.84;;;24.68;49.08
18819;BME280;9537;45.594;9.294;2022-08-24T01:56:35;99577.78;;;24.65;49.22
18819;BME280;9537;45.594;9.294;2022-08-24T01:57:36;99575.88;;;24.65;49.08
18819;BME280;9537;45.594;9.294;2022-08-24T01:58:42;99581.56;;;24.64;49.19
18819;BME280;9537;45.594;9.294;2022-08-24T01:59:43;99575.34;;;24.58;49.46
18819;BME280;9537;45.594;9.294;2022-08-24T02:00:46;99577.75;;;24.60;49.27
18819;BME280;9537;45.594;9.294;2022-08-24T02:01:51;99581.00;;;24.57;49.14
18819;BME280;9537;45.594;9.294;2022-08-24T02:02:55;99576.41;;;24.57;49.48
18819;BME280;9537;45.594;9.294;2022-08-24T02:03:57;99580.19;;;24.56;49.25
18819;BME280;9537;45.594;9.294;2022-08-24T02:05:01;99581.25;;;24.55;49.08
18819;BME280;9537;45.594;9.294;2022-08-24T02:06:03;99581.25;;;24.55;49.32
18819;BME280;9537;45.594;9.294;2022-08-24T02:07:05;99578.28;;;24.52;49.25
18819;BME280;9537;45.594;9.294;2022-08-24T02:08:07;99583.16;;;24.49;49.67
18819;BME280;9537;45.594;9.294;2022-08-24T02:09:10;99575.31;;;24.48;49.94
18819;BME280;9537;45.594;9.294;2022-08-24T02:10:12;99580.72;;;24.48;49.84
18819;BME280;9537;45.594;9.294;2022-08-24T02:11:15;99579.34;;;24.45;49.87
18819;BME280;9537;45.594;9.294;2022-08-24T02:12:17;99572.59;;;24.43;50.01
18819;BME280;9537;45.594;9.294;2022-08-24T02:13:19;99578.50;;;24.40;50.22
18819;BME280;9537;45.594;9.294;2022-08-24T02:14:21;99582.25;;;24.34;50.23
18819;BME280;9537;45.594;9.294;2022-08-24T02:15:24;99575.50;;;24.31;50.66
18819;BME280;9537;45.594;9.294;2022-08-24T02:16:27;99588.19;;;24.31;50.58
18819;BME280;9537;45.594;9.294;2022-08-24T02:17:28;99583.31;;;24.27;50.51
18819;BME280;9537;45.594;9.294;2022-08-24T02:18:31;99579.81;;;24.27;50.54
18819;BME280;9537;45.594;9.294;2022-08-24T02:19:33;99588.16;;;24.25;50.65
18819;BME280;9537;45.594;9.294;2022-08-24T02:20:35;99583.56;;;24.26;50.54
18819;BME280;9537;45.594;9.294;2022-08-24T02:21:37;99580.06;;;24.25;50.47
18819;BME280;9537;45.594;9.294;2022-08-24T02:22:39;99584.38;;;24.21;50.39
18819;BME280;9537;45.594;9.294;2022-08-24T02:23:41;99583.84;;;24.19;50.97
18819;BME280;9537;45.594;9.294;2022-08-24T02:24:43;99576.50;;;24.15;50.95
18819;BME280;9537;45.594;9.294;2022-08-24T02:25:44;99587.31;;;24.10;51.38
18819;BME280;9537;45.594;9.294;2022-08-24T02:26:48;99572.72;;;24.05;51.05
18819;BME280;9537;45.594;9.294;2022-08-24T02:27:49;99579.44;;;24.03;51.69
18819;BME280;9537;45.594;9.294;2022-08-24T02:28:51;99578.91;;;24.01;51.61
18819;BME280;9537;45.594;9.294;2022-08-24T02:29:52;99576.47;;;23.99;51.52
18819;BME280;9537;45.594;9.294;2022-08-24T02:30:54;99581.84;;;23.99;51.62
18819;BME280;9537;45.594;9.294;2022-08-24T02:31:55;99576.44;;;23.94;51.54
18819;BME280;9537;45.594;9.294;2022-08-24T02:32:58;99583.47;;;23.95;51.64
18819;BME280;9537;45.594;9.294;2022-08-24T02:33:59;99581.03;;;23.94;51.35
18819;BME280;9537;45.594;9.294;2022-08-24T02:35:01;99588.03;;;23.90;51.62
18819;BME280;9537;45.594;9.294;2022-08-24T02:36:03;99582.88;;;23.88;51.56
18819;BME280;9537;45.594;9.294;2022-08-24T02:37:05;99585.03;;;23.86;51.73
18819;BME280;9537;45.594;9.294;2022-08-24T02:38:06;99583.13;;;23.81;51.80
18819;BME280;9537;45.594;9.294;2022-08-24T02:39:08;99581.47;;;23.80;51.76
18819;BME280;9537;45.594;9.294;2022-08-24T02:40:10;99586.06;;;23.80;51.87
18819;BME280;9537;45.594;9.294;2022-08-24T02:41:13;99584.97;;;23.76;52.09
18819;BME280;9537;45.594;9.294;2022-08-24T02:42:15;99579.56;;;23.71;52.15
18819;BME280;9537;45.594;9.294;2022-08-24T02:43:17;99584.69;;;23.72;52.30
18819;BME280;9537;45.594;9.294;2022-08-24T02:44:18;99589.53;;;23.70;52.51
18819;BME280;9537;45.594;9.294;2022-08-24T02:45:20;99587.94;;;23.74;52.25
18819;BME280;9537;45.594;9.294;2022-08-24T02:46:24;99585.50;;;23.73;52.08
18819;BME280;9537;45.594;9.294;2022-08-24T02:47:27;99586.53;;;23.67;52.11
18819;BME280;9537;45.594;9.294;2022-08-24T02:48:28;99590.03;;;23.67;52.17
18819;BME280;9537;45.594;9.294;2022-08-24T02:49:31;99588.94;;;23.68;52.25
18819;BME280;9537;45.594;9.294;2022-08-24T02:50:32;99587.34;;;23.67;52.13
18819;BME280;9537;45.594;9.294;2022-08-24T02:51:34;99581.16;;;23.72;52.40
18819;BME280;9537;45.594;9.294;2022-08-24T02:52:35;99581.13;;;23.67;52.78
18819;BME280;9537;45.594;9.294;2022-08-24T02:53:38;99587.03;;;23.64;52.70
18819;BME280;9537;45.594;9.294;2022-08-24T02:54:40;99586.22;;;23.63;52.56
18819;BME280;9537;45.594;9.294;2022-08-24T02:55:43;99577.84;;;23.59;52.53
18819;BME280;9537;45.594;9.294;2022-08-24T02:56:44;99581.09;;;23.61;52.69
18819;BME280;9537;45.594;9.294;2022-08-24T02:57:48;99578.66;;;23.60;52.76
18819;BME280;9537;45.594;9.294;2022-08-24T02:58:50;99585.94;;;23.59;52.89
18819;BME280;9537;45.594;9.294;2022-08-24T02:59:52;99574.84;;;23.56;52.89
18819;BME280;9537;45.594;9.294;2022-08-24T03:00:54;99582.91;;;23.51;52.99
18819;BME280;9537;45.594;9.294;2022-08-24T03:01:56;99579.13;;;23.47;53.07
18819;BME280;9537;45.594;9.294;2022-08-24T03:02:58;99582.34;;;23.44;53.38
18819;BME280;9537;45.594;9.294;2022-08-24T03:04:01;99581.22;;;23.39;53.30
18819;BME280;9537;45.594;9.294;2022-08-24T03:05:03;99581.50;;;23.38;53.50
18819;BME280;9537;45.594;9.294;2022-08-24T03:06:06;99574.72;;;23.35;53.64
18819;BME280;9537;45.594;9.294;2022-08-24T03:07:08;99576.06;;;23.33;53.52
18819;BME280;9537;45.594;9.294;2022-08-24T03:08:10;99573.09;;;23.34;53.68
18819;BME280;9537;45.594;9.294;2022-08-24T03:09:12;99576.88;;;23.33;53.71
18819;BME280;9537;45.594;9.294;2022-08-24T03:10:15;99573.59;;;23.31;53.75
18819;BME280;9537;45.594;9.294;2022-08-24T03:11:16;99575.50;;;23.31;53.79
18819;BME280;9537;45.594;9.294;2022-08-24T03:12:18;99575.50;;;23.31;53.87
18819;BME280;9537;45.594;9.294;2022-08-24T03:13:20;99576.28;;;23.31;53.60
18819;BME280;9537;45.594;9.294;2022-08-24T03:14:22;99569.03;;;23.32;53.94
18819;BME280;9537;45.594;9.294;2022-08-24T03:15:24;99575.22;;;23.27;53.90
18819;BME280;9537;45.594;9.294;2022-08-24T03:16:26;99579.78;;;23.27;53.83
18819;BME280;9537;45.594;9.294;2022-08-24T03:17:28;99570.34;;;23.24;54.01
18819;BME280;9537;45.594;9.294;2022-08-24T03:18:31;99579.47;;;23.23;54.06
18819;BME280;9537;45.594;9.294;2022-08-24T03:19:33;99577.84;;;23.22;54.19
18819;BME280;9537;45.594;9.294;2022-08-24T03:20:35;99574.88;;;23.19;54.20
18819;BME280;9537;45.594;9.294;2022-08-24T03:21:36;99580.78;;;23.15;54.04
18819;BME280;9537;45.594;9.294;2022-08-24T03:22:38;99577.81;;;23.17;54.40
18819;BME280;9537;45.594;9.294;2022-08-24T03:23:39;99577.50;;;23.13;54.47
18819;BME280;9537;45.594;9.294;2022-08-24T03:24:41;99582.94;;;23.19;54.47
18819;BME280;9537;45.594;9.294;2022-08-24T03:25:42;99575.13;;;23.17;54.33
18819;BME280;9537;45.594;9.294;2022-08-24T03:26:45;99579.97;;;23.15;54.38
18819;BME280;9537;45.594;9.294;2022-08-24T03:27:46;99578.31;;;23.14;54.34
18819;BME280;9537;45.594;9.294;2022-08-24T03:28:49;99576.94;;;23.11;54.54
18819;BME280;9537;45.594;9.294;2022-08-24T03:29:50;99578.56;;;23.07;54.71
18819;BME280;9537;45.594;9.294;2022-08-24T03:30:52;99577.19;;;23.05;54.72
18819;BME280;9537;45.594;9.294;2022-08-24T03:31:54;99573.91;;;23.03;54.78
18819;BME280;9537;45.594;9.294;2022-08-24T03:32:57;99572.88;;;23.04;54.73
18819;BME280;9537;45.594;9.294;2022-08-24T03:33:58;99572.00;;;22.98;55.07
18819;BME280;9537;45.594;9.294;2022-08-24T03:35:00;99573.88;;;22.98;55.04
18819;BME280;9537;45.594;9.294;2022-08-24T03:36:02;99577.31;;;22.93;55.29
18819;BME280;9537;45.594;9.294;2022-08-24T03:37:04;99572.53;;;22.95;55.09
18819;BME280;9537;45.594;9.294;2022-08-24T03:38:06;99575.22;;;22.95;55.07
18819;BME280;9537;45.594;9.294;2022-08-24T03:39:07;99579.72;;;22.89;55.30
18819;BME280;9537;45.594;9.294;2022-08-24T03:40:10;99574.34;;;22.89;55.63
18819;BME280;9537;45.594;9.294;2022-08-24T03:41:11;99574.28;;;22.84;55.54
18819;BME280;9537;45.594;9.294;2022-08-24T03:42:16;99578.34;;;22.87;55.62
18819;BME280;9537;45.594;9.294;2022-08-24T03:43:17;99578.03;;;22.83;55.57
18819;BME280;9537;45.594;9.294;2022-08-24T03:44:38;99580.75;;;22.88;55.45
18819;BME280;9537;45.594;9.294;2022-08-24T03:45:40;99574.56;;;22.88;55.69
18819;BME280;9537;45.594;9.294;2022-08-24T03:46:43;99576.16;;;22.84;55.71
18819;BME280;9537;45.594;9.294;2022-08-24T03:47:46;99581.50;;;22.79;56.00
18819;BME280;9537;45.594;9.294;2022-08-24T03:48:47;99576.13;;;22.79;55.94
18819;BME280;9537;45.594;9.294;2022-08-24T03:49:49;99576.34;;;22.77;56.21
18819;BME280;9537;45.594;9.294;2022-08-24T03:50:50;99576.63;;;22.76;56.44
18819;BME280;9537;45.594;9.294;2022-08-24T03:51:52;99578.28;;;22.82;56.14
18819;BME280;9537;45.594;9.294;2022-08-24T03:52:53;99574.69;;;22.71;56.48
18819;BME280;9537;45.594;9.294;2022-08-24T03:53:57;99573.06;;;22.70;56.59
18819;BME280;9537;45.594;9.294;2022-08-24T03:54:59;99571.25;;;22.76;56.34
18819;BME280;9537;45.594;9.294;2022-08-24T03:56:01;99574.47;;;22.78;56.31
18819;BME280;9537;45.594;9.294;2022-08-24T03:57:02;99569.06;;;22.73;56.34
18819;BME280;9537;45.594;9.294;2022-08-24T03:58:05;99576.34;;;22.77;56.48
18819;BME280;9537;45.594;9.294;2022-08-24T03:59:07;99572.25;;;22.69;56.54
18819;BME280;9537;45.594;9.294;2022-08-24T04:00:12;99578.16;;;22.66;56.79
18819;BME280;9537;45.594;9.294;2022-08-24T04:01:14;99577.59;;;22.64;56.89
18819;BME280;9537;45.594;9.294;2022-08-24T04:02:17;99572.72;;;22.61;56.92
18819;BME280;9537;45.594;9.294;2022-08-24T04:03:18;99580.50;;;22.58;57.02
18819;BME280;9537;45.594;9.294;2022-08-24T04:04:21;99571.06;;;22.60;56.96
18819;BME280;9537;45.594;9.294;2022-08-24T04:05:22;99576.16;;;22.57;57.06
18819;BME280;9537;45.594;9.294;2022-08-24T04:06:24;99582.84;;;22.54;57.29
18819;BME280;9537;45.594;9.294;2022-08-24T04:07:25;99578.53;;;22.53;57.05
18819;BME280;9537;45.594;9.294;2022-08-24T04:08:27;99579.63;;;22.52;57.06
18819;BME280;9537;45.594;9.294;2022-08-24T04:09:28;99585.47;;;22.49;57.03
18819;BME280;9537;45.594;9.294;2022-08-24T04:10:30;99576.88;;;22.47;57.17
18819;BME280;9537;45.594;9.294;2022-08-24T04:11:32;99578.75;;;22.46;57.19
18819;BME280;9537;45.594;9.294;2022-08-24T04:12:34;99581.19;;;22.48;57.02
18819;BME280;9537;45.594;9.294;2022-08-24T04:13:35;99580.06;;;22.44;57.13
18819;BME280;9537;45.594;9.294;2022-08-24T04:14:37;99577.03;;;22.40;57.47
18819;BME280;9537;45.594;9.294;2022-08-24T04:15:42;99581.81;;;22.33;57.61
18819;BME280;9537;45.594;9.294;2022-08-24T04:16:44;99579.44;;;22.37;57.53
18819;BME280;9537;45.594;9.294;2022-08-24T04:17:45;99579.94;;;22.34;57.61
18819;BME280;9537;45.594;9.294;2022-08-24T04:18:47;99578.56;;;22.31;57.93
18819;BME280;9537;45.594;9.294;2022-08-24T04:19:48;99579.38;;;22.32;57.95
18819;BME280;9537;45.594;9.294;2022-08-24T04:20:58;99581.75;;;22.28;57.68
18819;BME280;9537;45.594;9.294;2022-08-24T04:21:59;99586.09;;;22.29;57.93
18819;BME280;9537;45.594;9.294;2022-08-24T04:23:01;99586.34;;;22.27;57.98
18819;BME280;9537;45.594;9.294;2022-08-24T04:24:02;99586.34;;;22.27;57.97
18819;BME280;9537;45.594;9.294;2022-08-24T04:25:05;99582.34;;;22.30;58.02
18819;BME280;9537;45.594;9.294;2022-08-24T04:26:07;99589.31;;;22.31;58.13
18819;BME280;9537;45.594;9.294;2022-08-24T04:27:09;99580.22;;;22.32;57.90
18819;BME280;9537;45.594;9.294;2022-08-24T04:28:10;99585.84;;;22.31;57.81
18819;BME280;9537;45.594;9.294;2022-08-24T04:29:14;99587.16;;;22.28;57.97
18819;BME280;9537;45.594;9.294;2022-08-24T04:30:15;99590.66;;;22.29;58.05
18819;BME280;9537;45.594;9.294;2022-08-24T04:31:18;99583.88;;;22.26;57.93
18819;BME280;9537;45.594;9.294;2022-08-24T04:32:19;99587.41;;;22.26;57.71
18819;BME280;9537;45.594;9.294;2022-08-24T04:33:22;99593.34;;;22.29;57.87
18819;BME280;9537;45.594;9.294;2022-08-24T04:34:23;99593.03;;;22.25;57.75
18819;BME280;9537;45.594;9.294;2022-08-24T04:35:25;99591.66;;;22.22;57.72
18819;BME280;9537;45.594;9.294;2022-08-24T04:36:26;99590.53;;;22.18;57.89
18819;BME280;9537;45.594;9.294;2022-08-24T04:37:29;99589.72;;;22.18;57.95
18819;BME280;9537;45.594;9.294;2022-08-24T04:38:29;99593.44;;;22.17;58.17
18819;BME280;9537;45.594;9.294;2022-08-24T04:39:31;99595.66;;;22.20;58.12
18819;BME280;9537;45.594;9.294;2022-08-24T04:40:33;99600.03;;;22.26;57.87
18819;BME280;9537;45.594;9.294;2022-08-24T04:41:36;99595.47;;;22.26;57.93
18819;BME280;9537;45.594;9.294;2022-08-24T04:42:37;99595.66;;;22.20;58.11
18819;BME280;9537;45.594;9.294;2022-08-24T04:43:40;99604.47;;;22.15;58.17
18819;BME280;9537;45.594;9.294;2022-08-24T04:44:44;99591.81;;;22.16;58.11
18819;BME280;9537;45.594;9.294;2022-08-24T04:45:47;99594.28;;;22.17;57.94
18819;BME280;9537;45.594;9.294;2022-08-24T04:46:49;99602.09;;;22.19;57.81
18819;BME280;9537;45.594;9.294;2022-08-24T04:47:53;99603.19;;;22.18;58.00
18819;BME280;9537;45.594;9.294;2022-08-24T04:48:55;99597.53;;;22.19;57.88
18819;BME280;9537;45.594;9.294;2022-08-24T04:49:57;99598.81;;;22.17;58.06
18819;BME280;9537;45.594;9.294;2022-08-24T04:51:00;99605.25;;;22.16;57.94
18819;BME280;9537;45.594;9.294;2022-08-24T04:52:04;99603.31;;;22.11;58.06
18819;BME280;9537;45.594;9.294;2022-08-24T04:53:06;99595.44;;;22.04;58.40
18819;BME280;9537;45.594;9.294;2022-08-24T04:54:08;99602.19;;;22.07;58.36
18819;BME280;9537;45.594;9.294;2022-08-24T04:55:09;99607.81;;;22.05;58.18
18819;BME280;9537;45.594;9.294;2022-08-24T04:56:14;99607.06;;;22.10;58.23
18819;BME280;9537;45.594;9.294;2022-08-24T04:57:15;99605.63;;;22.02;58.03
18819;BME280;9537;45.594;9.294;2022-08-24T04:58:17;99608.31;;;22.02;58.00
18819;BME280;9537;45.594;9.294;2022-08-24T04:59:18;99615.81;;;22.00;58.37
18819;BME280;9537;45.594;9.294;2022-08-24T05:00:21;99608.56;;;22.01;58.45
18819;BME280;9537;45.594;9.294;2022-08-24T05:01:24;99611.50;;;21.99;58.52
18819;BME280;9537;45.594;9.294;2022-08-24T05:02:28;99613.31;;;21.94;58.46
18819;BME280;9537;45.594;9.294;2022-08-24T05:03:29;99612.28;;;21.95;58.57
18819;BME280;9537;45.594;9.294;2022-08-24T05:04:31;99616.56;;;21.96;58.60
18819;BME280;9537;45.594;9.294;2022-08-24T05:05:33;99614.13;;;21.94;58.79
18819;BME280;9537;45.594;9.294;2022-08-24T05:06:35;99620.81;;;21.92;58.60
18819;BME280;9537;45.594;9.294;2022-08-24T05:07:36;99620.00;;;21.91;58.58
18819;BME280;9537;45.594;9.294;2022-08-24T05:08:39;99620.25;;;21.90;58.67
18819;BME280;9537;45.594;9.294;2022-08-24T05:09:40;99619.69;;;21.88;58.71
18819;BME280;9537;45.594;9.294;2022-08-24T05:10:43;99616.75;;;21.89;58.72
18819;BME280;9537;45.594;9.294;2022-08-24T05:11:45;99616.50;;;21.91;58.74
18819;BME280;9537;45.594;9.294;2022-08-24T05:12:48;99616.25;;;21.92;58.72
18819;BME280;9537;45.594;9.294;2022-08-24T05:13:50;99620.34;;;21.95;58.60
18819;BME280;9537;45.594;9.294;2022-08-24T05:14:53;99616.25;;;21.92;58.76
18819;BME280;9537;45.594;9.294;2022-08-24T05:15:54;99613.00;;;21.90;58.81
18819;BME280;9537;45.594;9.294;2022-08-24T05:16:56;99617.31;;;21.91;58.80
18819;BME280;9537;45.594;9.294;2022-08-24T05:17:59;99617.88;;;21.93;58.54
18819;BME280;9537;45.594;9.294;2022-08-24T05:19:01;99610.38;;;21.95;58.60
18819;BME280;9537;45.594;9.294;2022-08-24T05:20:03;99614.47;;;21.98;58.59
18819;BME280;9537;45.594;9.294;2022-08-24T05:21:06;99619.00;;;21.97;58.39
18819;BME280;9537;45.594;9.294;2022-08-24T05:22:08;99621.19;;;22.00;58.12
18819;BME280;9537;45.594;9.294;2022-08-24T05:23:10;99613.63;;;21.97;58.20
18819;BME280;9537;45.594;9.294;2022-08-24T05:24:11;99621.94;;;21.96;58.22
18819;BME280;9537;45.594;9.294;2022-08-24T05:25:13;99614.97;;;21.95;58.31
18819;BME280;9537;45.594;9.294;2022-08-24T05:26:17;99614.13;;;21.94;58.39
18819;BME280;9537;45.594;9.294;2022-08-24T05:27:19;99617.38;;;21.96;58.19
18819;BME280;9537;45.594;9.294;2022-08-24T05:28:20;99616.06;;;21.99;58.09
18819;BME280;9537;45.594;9.294;2022-08-24T05:29:22;99616.06;;;21.99;58.10
18819;BME280;9537;45.594;9.294;2022-08-24T05:30:24;99617.94;;;21.98;58.25
18819;BME280;9537;45.594;9.294;2022-08-24T05:31:30;99620.16;;;22.01;58.07
18819;BME280;9537;45.594;9.294;2022-08-24T05:32:31;99622.56;;;22.03;58.19
18819;BME280;9537;45.594;9.294;2022-08-24T05:33:34;99625.84;;;22.05;58.02
18819;BME280;9537;45.594;9.294;2022-08-24T05:34:36;99623.22;;;22.10;58.13
18819;BME280;9537;45.594;9.294;2022-08-24T05:35:39;99624.53;;;22.08;58.22
18819;BME280;9537;45.594;9.294;2022-08-24T05:36:41;99629.72;;;22.14;58.00